createdAt,value
2023-01-11T00:01:09.229Z,1.00
2023-01-11T00:06:17.971Z,0.50
2023-01-11T00:11:24.921Z,0.80
2023-01-11T00:16:31.872Z,0.70
2023-01-11T00:21:38.886Z,0.60
2023-01-11T00:26:45.978Z,0.80
2023-01-11T00:31:53.800Z,0.43
2023-01-11T00:37:00.843Z,0.47
2023-01-11T00:42:09.342Z,0.50
2023-01-11T00:47:19.946Z,0.83
2023-01-11T00:52:27.240Z,0.70
2023-01-11T00:57:34.533Z,0.60
2023-01-11T01:02:41.602Z,1.20
2023-01-11T01:07:49.267Z,0.40
2023-01-11T01:12:57.974Z,0.40
2023-01-11T01:18:05.796Z,0.50
2023-01-11T01:23:14.357Z,0.40
2023-01-11T01:28:22.861Z,0.40
2023-01-11T01:33:30.114Z,0.30
2023-01-11T01:38:37.164Z,0.40
2023-01-11T01:43:47.725Z,0.30
2023-01-11T01:48:57.726Z,0.30
2023-01-11T01:54:08.211Z,0.60
2023-01-11T01:59:18.606Z,0.60
2023-01-11T02:04:28.434Z,1.77
2023-01-11T02:09:36.855Z,0.40
2023-01-11T02:14:46.045Z,0.40
2023-01-11T02:19:55.952Z,0.30
2023-01-11T02:25:02.143Z,0.80
2023-01-11T02:30:13.947Z,0.50
2023-01-11T02:35:21.958Z,0.60
2023-01-11T02:40:30.027Z,0.37
2023-01-11T02:45:39.952Z,0.50
2023-01-11T02:50:48.440Z,0.40
2023-01-11T02:55:58.273Z,0.30
2023-01-11T03:01:06.020Z,0.30
2023-01-11T03:06:12.262Z,0.33
2023-01-11T03:11:21.837Z,0.83
2023-01-11T03:16:31.789Z,0.33
2023-01-11T03:21:38.111Z,0.40
2023-01-11T03:26:48.354Z,0.50
2023-01-11T03:31:58.327Z,0.43
2023-01-11T03:37:12.044Z,0.40
2023-01-11T03:42:20.868Z,0.50
2023-01-11T03:47:30.671Z,0.97
2023-01-11T03:52:42.372Z,0.30
2023-01-11T03:57:52.033Z,0.40
2023-01-11T04:03:00.371Z,0.90
2023-01-11T04:08:08.937Z,0.30
2023-01-11T04:13:17.067Z,0.40
2023-01-11T04:18:23.953Z,0.40
2023-01-11T04:23:31.073Z,0.30
2023-01-11T04:28:38.289Z,0.40
2023-01-11T04:33:45.502Z,0.33
2023-01-11T04:38:52.514Z,0.53
2023-01-11T04:43:59.544Z,0.50
2023-01-11T04:49:06.930Z,0.30
2023-01-11T04:54:14.626Z,0.40
2023-01-11T04:59:21.657Z,0.37
2023-01-11T05:04:29.291Z,0.40
2023-01-11T05:09:36.854Z,0.57
2023-01-11T05:14:44.252Z,2.93
2023-01-11T05:19:51.236Z,0.40
2023-01-11T05:24:58.276Z,0.30
2023-01-11T05:30:05.634Z,0.30
2023-01-11T05:35:12.635Z,0.30
2023-01-11T05:40:19.733Z,1.20
2023-01-11T05:45:28.222Z,1.13
2023-01-11T05:50:35.159Z,1.40
2023-01-11T05:55:43.426Z,1.40
2023-01-11T06:00:52.436Z,1.13
2023-01-11T06:06:01.283Z,2.10
2023-01-11T06:11:08.124Z,0.73
2023-01-11T06:16:18.245Z,0.40
2023-01-11T06:21:25.391Z,0.60
2023-01-11T06:26:32.657Z,0.70
2023-01-11T06:31:39.479Z,0.60
2023-01-11T06:36:46.701Z,0.40
2023-01-11T06:41:53.610Z,15.53
2023-01-11T06:47:00.545Z,1.50
2023-01-11T06:52:07.314Z,1.50
2023-01-11T06:57:14.116Z,0.67
2023-01-11T07:02:22.532Z,0.40
2023-01-11T07:07:30.631Z,0.53
2023-01-11T07:12:38.774Z,0.77
2023-01-11T07:17:47.385Z,2.63
2023-01-11T07:22:55.838Z,1.47
2023-01-11T07:28:05.412Z,8.20
2023-01-11T07:33:12.607Z,4.20
2023-01-11T07:38:19.777Z,17.07
2023-01-11T07:43:28.006Z,1.30
2023-01-11T07:48:34.829Z,2.00
2023-01-11T07:53:41.652Z,0.63
2023-01-11T07:58:48.610Z,2.57
2023-01-11T08:03:55.626Z,0.73
2023-01-11T08:09:02.712Z,0.50
2023-01-11T08:14:13.266Z,0.50
2023-01-11T08:19:20.114Z,74.80
2023-01-11T08:24:27.148Z,14.53
2023-01-11T08:29:34.189Z,9.93
2023-01-11T08:34:41.583Z,1.77
2023-01-11T08:39:49.001Z,2.13
2023-01-11T08:44:56.371Z,5.23
2023-01-11T08:50:03.302Z,10.80
2023-01-11T08:55:10.868Z,5.57
2023-01-11T09:00:18.047Z,12.47
2023-01-11T09:05:25.139Z,5.60
2023-01-11T09:10:31.987Z,1.50
2023-01-11T09:15:38.922Z,0.47
2023-01-11T09:20:45.974Z,0.47
2023-01-11T09:25:52.849Z,0.70
2023-01-11T09:30:59.692Z,0.60
2023-01-11T09:36:07.270Z,0.40
2023-01-11T09:41:18.749Z,0.50
2023-01-11T09:46:28.592Z,0.50
2023-01-11T09:51:39.419Z,0.40
2023-01-11T09:56:50.037Z,0.40
2023-01-11T10:02:01.563Z,0.40
2023-01-11T10:07:13.468Z,0.40
2023-01-11T10:18:25.784Z,0.50
2023-01-11T10:22:49.938Z,0.77
2023-01-11T10:28:01.812Z,0.50
2023-01-11T10:33:13.212Z,0.60
2023-01-11T10:38:24.600Z,0.40
2023-01-11T10:43:34.718Z,0.40
2023-01-11T10:48:44.367Z,0.80
2023-01-11T10:53:55.431Z,0.40
2023-01-11T10:59:07.792Z,0.50
2023-01-11T11:04:17.011Z,0.40
2023-01-11T11:09:26.953Z,0.53
2023-01-11T11:14:36.778Z,0.67
2023-01-11T11:19:43.729Z,1.63
2023-01-11T11:24:53.904Z,0.70
2023-01-11T11:30:00.756Z,0.50
2023-01-11T11:35:09.263Z,0.63
2023-01-11T11:40:19.187Z,0.60
2023-01-11T11:45:27.657Z,11.07
2023-01-11T11:50:44.632Z,3.07
2023-01-11T11:55:45.177Z,1.00
2023-01-11T12:00:53.809Z,0.97
2023-01-11T12:06:03.876Z,1.10
2023-01-11T12:11:13.753Z,0.70
2023-01-11T12:16:23.903Z,0.50
2023-01-11T12:21:31.249Z,0.77
2023-01-11T12:26:41.606Z,1.13
2023-01-11T12:31:51.510Z,1.03
2023-01-11T12:37:01.403Z,0.77
2023-01-11T12:42:11.122Z,0.50
2023-01-11T12:47:21.310Z,5.10
2023-01-11T12:52:31.239Z,0.50
2023-01-11T12:57:42.745Z,0.60
2023-01-11T13:02:52.839Z,0.60
2023-01-11T13:08:01.589Z,5.77
2023-01-11T13:13:09.973Z,7.07
2023-01-11T13:18:19.810Z,1.50
2023-01-11T13:23:31.544Z,1.63
2023-01-11T13:28:42.506Z,0.60
2023-01-11T13:33:53.299Z,0.67
2023-01-11T13:39:03.230Z,1.20
2023-01-11T13:44:11.272Z,1.07
2023-01-11T13:49:19.436Z,0.70
2023-01-11T13:54:29.323Z,1.50
2023-01-11T13:59:37.395Z,1.03
2023-01-11T14:04:47.406Z,1.03
2023-01-11T14:09:57.327Z,1.57
2023-01-11T14:15:07.150Z,0.57
2023-01-11T14:20:17.169Z,0.80
2023-01-11T14:25:27.124Z,1.07
2023-01-11T14:30:37.067Z,0.60
2023-01-11T14:35:46.927Z,1.03
2023-01-11T14:40:53.351Z,0.97
2023-01-11T14:46:01.970Z,1.90
2023-01-11T14:51:12.675Z,1.47
2023-01-11T14:56:22.463Z,1.23
2023-01-11T15:01:30.827Z,0.70
2023-01-11T15:06:44.614Z,1.57
2023-01-11T15:11:51.877Z,2.30
2023-01-11T15:17:04.485Z,1.37
2023-01-11T15:22:15.186Z,1.10
2023-01-11T15:27:28.202Z,1.30
2023-01-11T15:32:37.137Z,0.87
2023-01-11T15:37:47.574Z,0.50
2023-01-11T15:42:57.763Z,33.97
2023-01-11T15:48:06.975Z,0.90
2023-01-11T15:53:19.159Z,0.60
2023-01-11T15:58:29.756Z,0.60
2023-01-11T16:03:45.172Z,0.50
2023-01-11T16:08:55.643Z,4.13
2023-01-11T16:14:02.406Z,61.63
2023-01-11T16:19:12.787Z,9.40
2023-01-11T16:24:23.276Z,2.20
2023-01-11T16:29:35.981Z,1.53
2023-01-11T16:34:48.141Z,1.17
2023-01-11T16:39:59.291Z,17.30
2023-01-11T16:45:13.376Z,1.00
2023-01-11T16:50:25.239Z,49.00
2023-01-11T16:55:41.876Z,3.13
2023-01-11T17:00:56.566Z,4.93
2023-01-11T17:06:16.683Z,95.50
2023-01-11T17:11:37.451Z,29.10
2023-01-11T17:16:52.971Z,51.77
2023-01-11T17:22:05.539Z,14.87
2023-01-11T17:27:16.580Z,77.90
2023-01-11T17:32:27.465Z,57.97
2023-01-11T17:37:38.359Z,14.43
2023-01-11T17:42:50.943Z,15.87
2023-01-11T17:48:00.241Z,86.50
2023-01-11T17:53:14.479Z,46.60
2023-01-11T17:58:25.065Z,150.93
2023-01-11T18:03:34.718Z,159.23
2023-01-11T18:08:45.466Z,135.37
2023-01-11T18:13:55.191Z,55.03
2023-01-11T18:19:05.513Z,45.50
2023-01-11T18:24:12.292Z,53.30
2023-01-11T18:29:21.876Z,98.87
2023-01-11T18:34:29.904Z,86.43
2023-01-11T18:39:38.993Z,43.33
2023-01-11T18:44:49.626Z,64.90
2023-01-11T18:49:58.332Z,86.23
2023-01-11T18:55:08.866Z,84.57
2023-01-11T19:00:18.894Z,107.93
2023-01-11T19:05:26.151Z,42.40
2023-01-11T19:10:35.307Z,181.27
2023-01-11T19:15:43.683Z,65.67
2023-01-11T19:20:51.432Z,70.67
2023-01-11T19:26:01.800Z,41.90
2023-01-11T19:31:12.198Z,42.90
2023-01-11T19:36:19.808Z,59.97
2023-01-11T19:41:27.610Z,57.87
2023-01-11T19:46:36.117Z,67.40
2023-01-11T19:51:44.149Z,43.30
2023-01-11T19:56:52.321Z,6.87
2023-01-11T20:02:00.398Z,8.50
2023-01-11T20:07:08.866Z,73.03
2023-01-11T20:12:16.477Z,73.50
2023-01-11T20:17:23.594Z,48.63
2023-01-11T20:22:31.680Z,89.30
2023-01-11T20:27:39.262Z,64.23
2023-01-11T20:32:47.494Z,143.43
2023-01-11T20:37:56.517Z,32.10
2023-01-11T20:43:09.149Z,62.70
2023-01-11T20:48:16.761Z,44.87
2023-01-11T20:53:28.749Z,71.37
2023-01-11T20:58:36.109Z,29.53
2023-01-11T21:03:45.304Z,82.13
2023-01-11T21:08:55.913Z,27.37
2023-01-11T21:14:04.502Z,18.73
2023-01-11T21:19:14.520Z,44.77
2023-01-11T21:24:23.238Z,8.53
2023-01-11T21:29:31.226Z,2.43
2023-01-11T21:34:39.353Z,3.07
2023-01-11T21:39:49.438Z,45.07
2023-01-11T21:44:57.916Z,79.90
2023-01-11T21:50:05.275Z,49.93
2023-01-11T21:55:12.702Z,51.93
2023-01-11T22:00:20.530Z,108.07
2023-01-11T22:05:27.636Z,1.83
2023-01-11T22:10:35.251Z,1.43
2023-01-11T22:15:42.273Z,1.30
2023-01-11T22:20:49.883Z,13.33
2023-01-11T22:25:57.976Z,39.47
2023-01-11T22:31:06.530Z,45.03
2023-01-11T22:36:14.597Z,61.87
2023-01-11T22:41:22.849Z,33.10
2023-01-11T22:46:30.226Z,20.10
2023-01-11T22:51:37.637Z,31.93
2023-01-11T22:56:45.531Z,18.40
2023-01-11T23:01:52.901Z,53.73
2023-01-11T23:07:00.761Z,30.93
2023-01-11T23:12:09.334Z,25.03
2023-01-11T23:17:17.969Z,73.77
2023-01-11T23:22:25.025Z,12.40
2023-01-11T23:27:33.338Z,22.53
2023-01-11T23:32:40.676Z,32.30
2023-01-11T23:37:47.720Z,11.47
2023-01-11T23:42:54.886Z,22.20
2023-01-11T23:48:02.051Z,10.23
2023-01-11T23:53:09.005Z,4.20
2023-01-11T23:58:16.531Z,5.53
